La Grange, North Carolina
Current Conditions -  °F | °C
As of 4:56 PM on Monday 20 Oct 2014 (Local Time) from KISO Reporting Station
Clear Clear  
Wind Chill: 73°   Ceiling: Unl
Heat Index: 73°   Visibility: 10mi
Dew Point: 50°   Wind: 9mph
Humidity: 44%   Direction: 190°S
Pressure: 30.01"   Gusts: NA
Location:  35.31°N, 77.79°W
Report Text: KISO 202056Z AUTO 19008KT 10SM CLR 23/10 A3001 RMK AO2
Loading
Personal Weather Stations






























Interactive Weather Map
Tropical Storm Tracking
New forecast layout! Learn more

10-Day Weather Forecast

Advertisements
Track Severe Weather on mobile